Time;durP1;ratioP1;P1;durP2;ratioP2;P2;SDS_P1;SDS_P2;PMS_P1;PMS_P2;Temp;Humidity;BMP_temperature;BMP_pressure;BME280_temperature;BME280_humidity;BME280_pressure;Samples;Min_cycle;Max_cycle;Signal;HPM_P1;HPM_P2
2023/06/10 00:00:01;;;;;;;15.20;10.70;;;16.50;99.90;;;;;;4997005;28;20090;-70
2023/06/10 00:02:40;;;;;;;13.68;10.48;;;16.50;99.90;;;;;;5011859;28;20038;-71
2023/06/10 00:05:08;;;;;;;15.10;10.10;;;16.40;99.90;;;;;;4981347;28;20485;-71
2023/06/10 00:07:40;;;;;;;11.38;10.18;;;16.40;99.90;;;;;;5013061;28;20136;-70
2023/06/10 00:10:10;;;;;;;11.43;10.02;;;16.40;99.90;;;;;;4998372;28;20052;-70
2023/06/10 00:12:38;;;;;;;12.10;10.25;;;16.30;99.90;;;;;;4972892;28;20410;-70
2023/06/10 00:15:07;;;;;;;11.93;10.27;;;16.30;99.90;;;;;;4972595;28;20141;-70
2023/06/10 00:17:38;;;;;;;12.15;9.68;;;16.30;99.90;;;;;;4976698;28;20111;-70
2023/06/10 00:20:11;;;;;;;11.30;9.75;;;16.30;99.90;;;;;;4986763;28;20045;-70
2023/06/10 00:22:41;;;;;;;11.30;9.52;;;16.30;99.90;;;;;;4996892;28;20057;-71
2023/06/10 00:25:10;;;;;;;10.48;9.38;;;16.20;99.90;;;;;;5004218;28;20045;-71
2023/06/10 00:27:38;;;;;;;11.52;9.55;;;16.20;99.90;;;;;;5021785;28;20072;-70
2023/06/10 00:30:06;;;;;;;11.13;9.13;;;16.20;99.90;;;;;;4980569;28;20034;-71
2023/06/10 00:32:37;;;;;;;11.27;9.27;;;16.10;99.90;;;;;;5021759;28;20161;-71
2023/06/10 00:35:05;;;;;;;13.02;9.82;;;16.10;99.90;;;;;;4994119;28;20048;-71
2023/06/10 00:37:37;;;;;;;13.20;9.35;;;16.10;99.90;;;;;;5009480;28;20044;-71
2023/06/10 00:40:05;;;;;;;12.40;9.38;;;16.10;99.90;;;;;;4974955;28;20064;-71
2023/06/10 00:42:34;;;;;;;10.85;9.25;;;16.00;99.90;;;;;;5012672;28;20074;-71
2023/06/10 00:45:02;;;;;;;10.60;9.25;;;16.00;99.90;;;;;;4984564;28;20038;-71
2023/06/10 00:47:31;;;;;;;9.90;8.90;;;16.00;99.90;;;;;;5011582;28;20046;-71
2023/06/10 00:49:59;;;;;;;10.73;8.98;;;16.00;99.90;;;;;;4978881;28;20034;-71
2023/06/10 00:52:29;;;;;;;11.27;9.82;;;16.00;99.90;;;;;;5007284;28;20096;-71
2023/06/10 00:54:57;;;;;;;11.77;9.40;;;15.90;99.90;;;;;;4992186;28;20069;-71
2023/06/10 00:57:25;;;;;;;10.88;9.70;;;15.90;99.90;;;;;;5009842;28;20239;-70
2023/06/10 00:59:54;;;;;;;11.38;9.00;;;15.90;99.90;;;;;;4998519;28;20059;-70
2023/06/10 01:02:22;;;;;;;11.32;9.32;;;15.90;99.90;;;;;;5005073;28;20061;-71
2023/06/10 01:04:52;;;;;;;10.23;9.10;;;15.80;99.90;;;;;;4991587;28;20049;-70
2023/06/10 01:07:33;;;;;;;11.02;9.18;;;15.80;99.90;;;;;;4999803;28;20116;-71
2023/06/10 01:10:26;;;;;;;10.15;9.10;;;15.80;99.90;;;;;;4974898;28;20053;-71
2023/06/10 01:13:06;;;;;;;13.60;9.77;;;15.70;99.90;;;;;;5014042;28;20098;-71
2023/06/10 01:15:35;;;;;;;11.38;10.18;;;15.70;99.90;;;;;;5003552;28;20046;-71
2023/06/10 01:18:07;;;;;;;11.98;10.05;;;15.60;99.90;;;;;;4976968;28;20053;-71
2023/06/10 01:20:39;;;;;;;11.30;9.88;;;15.60;99.90;;;;;;5000655;28;20059;-71
2023/06/10 01:23:08;;;;;;;14.98;9.73;;;15.50;99.90;;;;;;4976320;28;20046;-71
2023/06/10 01:25:49;;;;;;;12.40;9.88;;;15.50;99.90;;;;;;5017483;28;20045;-70
2023/06/10 01:28:43;;;;;;;14.30;10.07;;;15.50;99.90;;;;;;5005216;28;20057;-71
2023/06/10 01:31:26;;;;;;;11.15;9.95;;;15.40;99.90;;;;;;4974753;28;20240;-71
2023/06/10 01:33:54;;;;;;;12.07;10.50;;;15.40;99.90;;;;;;4984338;28;20108;-71
2023/06/10 01:36:24;;;;;;;14.25;10.55;;;15.40;99.90;;;;;;4991645;28;20141;-71
2023/06/10 01:38:53;;;;;;;13.98;10.18;;;15.30;99.90;;;;;;4981558;28;20046;-70
2023/06/10 01:41:21;;;;;;;12.45;10.57;;;15.30;99.90;;;;;;5005142;28;20054;-70
2023/06/10 01:43:49;;;;;;;15.95;11.45;;;15.30;99.90;;;;;;4999100;28;20041;-71
2023/06/10 01:46:19;;;;;;;12.35;10.02;;;15.30;99.90;;;;;;5003711;28;20041;-71
2023/06/10 01:48:49;;;;;;;13.45;10.25;;;15.20;99.90;;;;;;4981779;28;20050;-71
2023/06/10 01:51:16;;;;;;;12.75;10.45;;;15.20;99.90;;;;;;5005088;28;20034;-71
2023/06/10 01:53:46;;;;;;;17.70;11.18;;;15.10;99.90;;;;;;4997893;28;20494;-71
2023/06/10 01:56:19;;;;;;;14.10;10.32;;;15.10;99.90;;;;;;5006386;28;20061;-71
2023/06/10 01:58:48;;;;;;;15.30;10.80;;;15.10;99.90;;;;;;5001404;28;20030;-71
2023/06/10 02:01:16;;;;;;;15.90;10.40;;;15.10;99.90;;;;;;5002221;28;20596;-71
2023/06/10 02:03:45;;;;;;;10.93;9.68;;;15.10;99.90;;;;;;4978752;28;20417;-71
2023/06/10 02:06:13;;;;;;;13.68;11.23;;;15.10;99.90;;;;;;5001652;28;20061;-71
2023/06/10 02:08:41;;;;;;;15.00;10.50;;;15.10;99.90;;;;;;5002925;28;20078;-71
2023/06/10 02:11:08;;;;;;;19.15;11.07;;;15.10;99.90;;;;;;4999949;28;20521;-71
2023/06/10 02:13:37;;;;;;;11.68;10.48;;;15.10;99.90;;;;;;4980876;28;20046;-70
2023/06/10 02:16:05;;;;;;;13.75;10.27;;;15.10;99.90;;;;;;4996552;28;20501;-71
2023/06/10 02:18:33;;;;;;;14.93;10.05;;;15.00;99.90;;;;;;4999422;28;20050;-71
2023/06/10 02:21:01;;;;;;;14.43;10.23;;;15.10;99.90;;;;;;4993843;28;20038;-71
2023/06/10 02:23:28;;;;;;;13.52;10.27;;;15.00;99.90;;;;;;4987106;28;20152;-71
2023/06/10 02:25:56;;;;;;;17.33;11.77;;;15.00;99.90;;;;;;5011988;28;20052;-70
2023/06/10 02:28:25;;;;;;;13.38;10.63;;;14.90;99.90;;;;;;4982676;28;20042;-71
2023/06/10 02:30:52;;;;;;;13.55;9.88;;;14.90;99.90;;;;;;5001195;28;20140;-71
2023/06/10 02:33:20;;;;;;;12.45;10.05;;;14.90;99.90;;;;;;4994502;28;20506;-71
2023/06/10 02:35:49;;;;;;;14.63;10.68;;;14.90;99.90;;;;;;4994251;28;20058;-71
2023/06/10 02:38:16;;;;;;;14.65;10.02;;;14.80;99.90;;;;;;4985941;28;20041;-71
2023/06/10 02:40:45;;;;;;;12.60;10.25;;;14.80;99.90;;;;;;4978740;28;20050;-71
2023/06/10 02:43:13;;;;;;;13.32;8.98;;;14.80;99.90;;;;;;4978979;28;20042;-71
2023/06/10 02:45:41;;;;;;;13.80;9.45;;;14.80;99.90;;;;;;4967365;28;20050;-71
2023/06/10 02:48:10;;;;;;;13.43;9.60;;;14.80;99.90;;;;;;4999813;28;20366;-71
2023/06/10 02:50:40;;;;;;;13.82;10.05;;;14.70;99.90;;;;;;4989917;28;20115;-71
2023/06/10 02:53:16;;;;;;;14.10;9.77;;;14.70;99.90;;;;;;5009165;28;20064;-71
2023/06/10 02:55:49;;;;;;;12.40;9.85;;;14.70;99.90;;;;;;5002512;28;20038;-71
2023/06/10 02:58:18;;;;;;;13.02;10.45;;;14.70;99.90;;;;;;4997254;28;20502;-71
2023/06/10 03:00:46;;;;;;;11.38;9.35;;;14.60;99.90;;;;;;4979553;28;20045;-70
2023/06/10 03:03:14;;;;;;;11.93;9.77;;;14.60;99.90;;;;;;4981520;28;20042;-71
2023/06/10 03:05:51;;;;;;;15.82;9.80;;;14.60;99.90;;;;;;4976541;28;20227;-71
2023/06/10 03:08:21;;;;;;;14.02;10.25;;;14.60;99.90;;;;;;4976588;28;20049;-71
2023/06/10 03:10:48;;;;;;;11.77;9.50;;;14.60;99.90;;;;;;5000786;28;20042;-72
2023/06/10 03:13:17;;;;;;;11.38;9.23;;;14.60;99.90;;;;;;4992863;28;20056;-71
2023/06/10 03:15:45;;;;;;;11.95;9.88;;;14.60;99.90;;;;;;4985375;28;20579;-71
2023/06/10 03:18:16;;;;;;;12.63;10.05;;;14.60;99.90;;;;;;4989268;28;20301;-71
2023/06/10 03:20:45;;;;;;;12.75;9.52;;;14.60;99.90;;;;;;4987337;28;20077;-71
2023/06/10 03:23:15;;;;;;;13.13;10.32;;;14.50;99.90;;;;;;4984947;28;20443;-71
2023/06/10 03:25:43;;;;;;;12.35;9.85;;;14.50;99.90;;;;;;4987751;28;20123;-71
2023/06/10 03:28:14;;;;;;;14.10;9.60;;;14.50;99.90;;;;;;5010689;28;20494;-71
2023/06/10 03:30:43;;;;;;;12.05;9.73;;;14.50;99.90;;;;;;5008046;28;20370;-71
2023/06/10 03:33:10;;;;;;;13.50;9.88;;;14.50;99.90;;;;;;4999968;28;20116;-71
2023/06/10 03:35:39;;;;;;;11.13;9.25;;;14.50;99.90;;;;;;5004259;28;20038;-71
2023/06/10 03:38:07;;;;;;;11.45;9.77;;;14.50;99.90;;;;;;5011351;28;20038;-71
2023/06/10 03:40:35;;;;;;;13.20;9.93;;;14.50;99.90;;;;;;5001915;28;20527;-71
2023/06/10 03:43:03;;;;;;;10.88;9.15;;;14.60;99.90;;;;;;4994200;28;20042;-71
2023/06/10 03:45:31;;;;;;;11.73;9.20;;;14.70;99.90;;;;;;4977404;28;20049;-71
2023/06/10 03:48:01;;;;;;;13.38;9.10;;;14.70;99.90;;;;;;5001602;28;20045;-70
2023/06/10 03:50:37;;;;;;;12.02;9.25;;;14.70;99.90;;;;;;4993710;28;20092;-71
2023/06/10 03:53:05;;;;;;;12.00;9.25;;;14.70;99.90;;;;;;4962123;28;20138;-71
2023/06/10 03:55:33;;;;;;;11.10;9.07;;;14.80;99.90;;;;;;5019971;28;20052;-72
2023/06/10 03:58:01;;;;;;;10.25;8.85;;;14.80;99.90;;;;;;4985267;28;20458;-71
2023/06/10 04:00:29;;;;;;;11.85;10.25;;;14.80;99.90;;;;;;4995597;28;20065;-71
2023/06/10 04:02:57;;;;;;;11.00;9.52;;;14.80;99.90;;;;;;4977850;28;20048;-72
2023/06/10 04:05:34;;;;;;;11.43;10.18;;;14.90;99.90;;;;;;4975792;28;20130;-71
2023/06/10 04:08:02;;;;;;;12.35;10.55;;;14.90;99.90;;;;;;4992306;28;20042;-71
2023/06/10 04:10:32;;;;;;;12.52;11.20;;;14.90;99.90;;;;;;4975194;28;20041;-71
2023/06/10 04:13:00;;;;;;;12.13;9.95;;;14.90;99.90;;;;;;4983935;28;20077;-70
2023/06/10 04:15:33;;;;;;;12.10;10.20;;;14.90;99.90;;;;;;4975276;28;20073;-71
2023/06/10 04:18:06;;;;;;;12.15;10.02;;;15.00;99.90;;;;;;4993247;28;20041;-71
2023/06/10 04:20:34;;;;;;;14.20;10.15;;;15.00;99.90;;;;;;4996111;28;20056;-71
2023/06/10 04:23:02;;;;;;;12.35;9.63;;;15.00;99.90;;;;;;4984754;28;20390;-71
2023/06/10 04:25:31;;;;;;;11.77;9.70;;;15.10;99.90;;;;;;4985335;28;20489;-71
2023/06/10 04:27:59;;;;;;;15.05;11.60;;;15.10;99.90;;;;;;4977011;28;20113;-71
2023/06/10 04:30:27;;;;;;;13.70;10.50;;;15.10;99.90;;;;;;5000264;28;20049;-71
2023/06/10 04:32:56;;;;;;;13.07;11.15;;;15.20;99.90;;;;;;4975623;28;20041;-71
2023/06/10 04:35:26;;;;;;;13.82;11.15;;;15.20;99.90;;;;;;4992969;28;20042;-71
2023/06/10 04:37:56;;;;;;;14.15;12.02;;;15.20;99.90;;;;;;4992250;28;20061;-71
2023/06/10 04:40:25;;;;;;;15.82;12.35;;;15.20;99.90;;;;;;4975124;28;20100;-71
2023/06/10 04:42:53;;;;;;;16.60;11.38;;;15.30;99.90;;;;;;4982211;28;20512;-71
2023/06/10 04:45:21;;;;;;;13.85;10.93;;;15.30;99.90;;;;;;4998596;28;20037;-72
2023/06/10 04:47:50;;;;;;;11.80;9.98;;;15.50;99.90;;;;;;4983704;28;20042;-71
2023/06/10 04:50:17;;;;;;;11.13;9.73;;;15.50;99.90;;;;;;5017190;28;20072;-71
2023/06/10 04:52:45;;;;;;;13.93;10.73;;;15.60;99.90;;;;;;4999514;28;20061;-70
2023/06/10 04:55:13;;;;;;;13.30;9.68;;;15.70;99.90;;;;;;4985063;28;20042;-71
2023/06/10 04:57:41;;;;;;;13.05;11.07;;;15.80;99.90;;;;;;5012016;28;20414;-70
2023/06/10 05:00:09;;;;;;;13.27;9.90;;;15.90;99.90;;;;;;4992295;28;20046;-70
2023/06/10 05:02:38;;;;;;;13.98;10.75;;;16.10;99.90;;;;;;4991769;28;20308;-70
2023/06/10 05:05:06;;;;;;;13.80;11.50;;;16.10;99.90;;;;;;5013739;28;20041;-71
2023/06/10 05:07:34;;;;;;;18.23;12.95;;;16.20;99.90;;;;;;4988527;28;20077;-71
2023/06/10 05:10:03;;;;;;;18.75;13.60;;;16.30;99.90;;;;;;5001696;28;20101;-71
2023/06/10 05:12:33;;;;;;;15.45;12.15;;;16.40;99.90;;;;;;4961610;28;20042;-71
2023/06/10 05:15:01;;;;;;;15.63;12.35;;;16.50;99.90;;;;;;4999810;28;20045;-71
2023/06/10 05:17:28;;;;;;;13.95;11.13;;;16.50;99.90;;;;;;4974891;28;20039;-72
2023/06/10 05:19:58;;;;;;;13.68;10.85;;;16.60;99.90;;;;;;5013517;28;20362;-71
2023/06/10 05:22:27;;;;;;;14.10;11.57;;;16.70;99.90;;;;;;5017601;28;20042;-71
2023/06/10 05:24:54;;;;;;;16.30;11.55;;;16.80;99.90;;;;;;5020853;28;20416;-71
2023/06/10 05:27:22;;;;;;;13.95;11.38;;;16.80;99.90;;;;;;5009028;28;20406;-71
2023/06/10 05:29:51;;;;;;;12.38;11.05;;;16.90;99.90;;;;;;4978406;28;20567;-70
2023/06/10 05:32:18;;;;;;;11.50;10.02;;;17.00;99.90;;;;;;4996333;28;20122;-71
2023/06/10 05:34:46;;;;;;;13.98;12.10;;;17.10;99.90;;;;;;5010466;28;20038;-71
2023/06/10 05:37:14;;;;;;;14.73;11.73;;;17.20;99.90;;;;;;5003838;28;20054;-71
2023/06/10 05:39:42;;;;;;;20.58;15.52;;;17.30;99.90;;;;;;4996842;28;20042;-71
2023/06/10 05:42:10;;;;;;;17.15;11.85;;;17.50;99.90;;;;;;4968810;28;20046;-71
2023/06/10 05:44:37;;;;;;;13.68;12.13;;;17.50;99.90;;;;;;5002136;28;20045;-71
2023/06/10 05:47:05;;;;;;;14.80;12.32;;;17.60;99.90;;;;;;5013187;28;20070;-71
2023/06/10 05:49:33;;;;;;;14.07;10.40;;;17.70;99.90;;;;;;5001319;28;20088;-71
2023/06/10 05:52:00;;;;;;;16.30;11.30;;;17.80;99.90;;;;;;4996541;28;20042;-71
2023/06/10 05:54:28;;;;;;;13.57;11.35;;;17.80;99.90;;;;;;5012180;28;20509;-71
2023/06/10 05:56:56;;;;;;;12.85;10.43;;;17.90;99.90;;;;;;4980102;28;20533;-71
2023/06/10 05:59:24;;;;;;;12.43;10.43;;;17.90;99.90;;;;;;4994903;28;20052;-71
2023/06/10 06:01:52;;;;;;;12.15;10.68;;;18.00;99.90;;;;;;5012064;28;20084;-71
2023/06/10 06:04:19;;;;;;;11.40;10.20;;;18.00;99.90;;;;;;5001548;28;20136;-71
2023/06/10 06:06:46;;;;;;;15.13;11.13;;;18.00;99.90;;;;;;5003906;28;20061;-71
2023/06/10 06:09:14;;;;;;;13.45;11.02;;;18.10;99.90;;;;;;4976967;28;20082;-71
2023/06/10 06:11:42;;;;;;;18.52;11.05;;;18.20;99.90;;;;;;4975063;28;20049;-72
2023/06/10 06:14:11;;;;;;;12.88;11.05;;;18.30;99.90;;;;;;4978105;28;20049;-71
2023/06/10 06:16:38;;;;;;;12.75;10.38;;;18.40;99.90;;;;;;4995517;28;20161;-71
2023/06/10 06:19:06;;;;;;;11.93;10.57;;;18.40;99.90;;;;;;5011453;28;20045;-72
2023/06/10 06:21:33;;;;;;;11.15;9.98;;;18.50;99.90;;;;;;4976039;28;20101;-71
2023/06/10 06:24:01;;;;;;;11.68;10.38;;;18.70;99.90;;;;;;4995133;28;20042;-71
2023/06/10 06:26:29;;;;;;;11.63;9.95;;;18.70;99.90;;;;;;4994574;28;20042;-71
2023/06/10 06:28:57;;;;;;;12.73;9.77;;;18.80;99.90;;;;;;5019313;28;20103;-71
2023/06/10 06:31:25;;;;;;;13.35;10.88;;;18.90;99.90;;;;;;4977532;28;20157;-71
2023/06/10 06:33:52;;;;;;;13.80;11.02;;;18.90;99.90;;;;;;4997240;28;20037;-71
2023/06/10 06:36:20;;;;;;;15.75;12.20;;;18.80;99.90;;;;;;5017137;28;20046;-71
2023/06/10 06:38:47;;;;;;;12.93;11.43;;;18.90;99.90;;;;;;4979136;28;20037;-71
2023/06/10 06:41:15;;;;;;;13.05;10.68;;;18.80;99.90;;;;;;4974796;28;20057;-71
2023/06/10 06:43:43;;;;;;;12.32;10.88;;;18.90;99.90;;;;;;5013611;28;20473;-71
2023/06/10 06:46:31;;;;;;;11.68;10.38;;;18.90;99.90;;;;;;5005317;28;20049;-71
2023/06/10 06:48:59;;;;;;;12.23;10.98;;;19.00;99.90;;;;;;4992937;28;20050;-71
2023/06/10 06:51:27;;;;;;;14.65;11.35;;;19.20;99.90;;;;;;4999284;28;20552;-71
2023/06/10 06:53:58;;;;;;;12.30;10.50;;;19.30;99.90;;;;;;4975545;28;20057;-71
2023/06/10 06:56:28;;;;;;;14.65;11.38;;;19.40;99.90;;;;;;4979477;28;20073;-71
2023/06/10 06:58:56;;;;;;;16.23;11.80;;;19.40;99.90;;;;;;4993867;28;20057;-71
2023/06/10 07:01:24;;;;;;;12.07;10.35;;;19.50;99.90;;;;;;5012527;28;20050;-71
2023/06/10 07:03:52;;;;;;;12.10;9.55;;;19.60;99.90;;;;;;5013039;28;20045;-71
2023/06/10 07:06:19;;;;;;;10.98;9.80;;;19.80;99.90;;;;;;5001695;28;20575;-71
2023/06/10 07:08:49;;;;;;;10.63;9.32;;;19.90;99.90;;;;;;4986155;28;20050;-71
2023/06/10 07:11:17;;;;;;;9.82;8.50;;;20.10;99.90;;;;;;4995880;28;20398;-70
2023/06/10 07:13:45;;;;;;;10.75;8.60;;;20.30;99.90;;;;;;4977339;28;20092;-71
2023/06/10 07:16:12;;;;;;;9.55;8.43;;;20.40;99.90;;;;;;4999884;28;20068;-71
2023/06/10 07:18:40;;;;;;;8.57;7.75;;;20.60;99.90;;;;;;4998370;28;20660;-71
2023/06/10 07:21:10;;;;;;;10.05;8.05;;;20.80;99.90;;;;;;4992980;28;20528;-71
2023/06/10 07:23:41;;;;;;;10.80;8.70;;;21.00;99.90;;;;;;5005116;28;20498;-71
2023/06/10 07:26:10;;;;;;;9.68;8.75;;;21.10;99.90;;;;;;4993343;28;20387;-72
2023/06/10 07:28:38;;;;;;;8.77;7.75;;;21.20;99.90;;;;;;5001444;28;20133;-71
2023/06/10 07:31:05;;;;;;;9.45;8.55;;;21.30;99.90;;;;;;5005124;28;20051;-72
2023/06/10 07:33:33;;;;;;;8.93;7.90;;;21.40;99.90;;;;;;5004795;28;20045;-72
2023/06/10 07:36:00;;;;;;;10.10;8.18;;;21.50;99.90;;;;;;4994598;28;20383;-71
2023/06/10 07:38:28;;;;;;;9.43;8.43;;;21.60;99.90;;;;;;5000066;28;20046;-71
2023/06/10 07:40:55;;;;;;;8.63;7.82;;;21.70;99.90;;;;;;5019136;28;20111;-71
2023/06/10 07:43:23;;;;;;;9.48;8.32;;;21.80;99.90;;;;;;5014076;28;20473;-72
2023/06/10 07:45:51;;;;;;;8.80;8.00;;;21.90;99.90;;;;;;4993589;28;20050;-71
2023/06/10 07:48:19;;;;;;;9.35;8.35;;;21.90;99.90;;;;;;4987731;28;20077;-71
2023/06/10 07:50:46;;;;;;;10.48;8.43;;;22.00;99.90;;;;;;4999813;28;20042;-72
2023/06/10 07:53:14;;;;;;;9.02;8.13;;;22.00;99.90;;;;;;5008901;28;20064;-72
2023/06/10 07:55:41;;;;;;;9.40;8.45;;;22.10;99.90;;;;;;5010347;28;20128;-71
2023/06/10 07:58:08;;;;;;;9.43;8.07;;;22.20;99.90;;;;;;4999776;28;20057;-71
2023/06/10 08:00:36;;;;;;;8.18;7.38;;;22.30;99.90;;;;;;5006645;28;20087;-71
2023/06/10 08:03:03;;;;;;;8.95;8.05;;;22.40;99.90;;;;;;5000057;28;20575;-71
2023/06/10 08:05:31;;;;;;;11.18;8.10;;;22.50;99.90;;;;;;5009918;28;20046;-72
2023/06/10 08:08:01;;;;;;;8.95;8.13;;;22.60;99.90;;;;;;4990125;28;20042;-71
2023/06/10 08:10:30;;;;;;;10.02;8.43;;;22.60;99.90;;;;;;4984038;28;20096;-72
2023/06/10 08:12:58;;;;;;;8.60;7.80;;;22.70;99.90;;;;;;4991622;28;20053;-71
2023/06/10 08:15:25;;;;;;;9.20;7.88;;;22.80;99.90;;;;;;4996649;28;20045;-71
2023/06/10 08:17:53;;;;;;;8.38;7.47;;;22.80;99.90;;;;;;5007407;28;20151;-72
2023/06/10 08:20:20;;;;;;;9.05;7.50;;;22.90;99.90;;;;;;4981153;28;20042;-71
2023/06/10 08:22:48;;;;;;;8.77;7.97;;;23.00;99.90;;;;;;5010073;28;20438;-71
2023/06/10 08:25:16;;;;;;;8.65;7.85;;;23.00;99.90;;;;;;5010105;28;20140;-71
2023/06/10 08:27:43;;;;;;;8.60;7.80;;;23.10;99.90;;;;;;5009622;28;20046;-72
2023/06/10 08:30:13;;;;;;;9.00;8.10;;;23.20;99.90;;;;;;4983469;28;20132;-71
2023/06/10 08:32:40;;;;;;;8.55;7.65;;;23.30;99.90;;;;;;5021354;28;20050;-71
2023/06/10 08:35:08;;;;;;;8.35;7.55;;;23.40;99.90;;;;;;5006918;28;20417;-71
2023/06/10 08:37:36;;;;;;;8.82;7.80;;;23.40;99.90;;;;;;4984331;28;20049;-72
2023/06/10 08:40:04;;;;;;;10.63;7.93;;;23.50;99.90;;;;;;4979005;28;20127;-72
2023/06/10 08:43:07;;;;;;;14.43;12.93;;;23.60;99.90;;;;;;4999927;28;20061;-72
2023/06/10 08:45:36;;;;;;;9.07;8.23;;;23.60;99.90;;;;;;5008221;28;20046;-71
2023/06/10 08:48:08;;;;;;;10.07;7.50;;;23.80;99.90;;;;;;5008632;28;20045;-71
2023/06/10 08:50:39;;;;;;;8.15;7.35;;;23.90;99.90;;;;;;4992600;28;20042;-71
2023/06/10 08:53:07;;;;;;;8.75;6.75;;;24.00;99.90;;;;;;5016443;28;20053;-72
2023/06/10 08:55:41;;;;;;;7.22;6.53;;;24.00;99.90;;;;;;5015798;28;20121;-71
2023/06/10 08:58:10;;;;;;;8.00;7.20;;;24.10;99.90;;;;;;5008037;28;20073;-72
2023/06/10 09:00:37;;;;;;;7.70;7.00;;;24.20;99.90;;;;;;4996063;28;20053;-71
2023/06/10 09:03:08;;;;;;;6.85;6.13;;;24.40;99.90;;;;;;5008523;28;20053;-72
2023/06/10 09:05:37;;;;;;;6.90;6.30;;;24.50;99.90;;;;;;5004510;28;20066;-72
2023/06/10 09:08:09;;;;;;;7.55;6.53;;;24.60;99.90;;;;;;4995261;28;20107;-72
2023/06/10 09:10:37;;;;;;;8.68;6.38;;;24.60;99.90;;;;;;5004679;28;20046;-72
2023/06/10 09:13:05;;;;;;;7.20;6.47;;;24.70;99.90;;;;;;5007360;28;20041;-72
2023/06/10 09:15:33;;;;;;;7.13;6.45;;;24.80;99.90;;;;;;4982399;28;20046;-72
2023/06/10 09:18:01;;;;;;;6.65;5.85;;;25.00;99.90;;;;;;4980692;28;20045;-72
2023/06/10 09:20:29;;;;;;;7.50;6.78;;;25.10;99.90;;;;;;4995036;28;20062;-72
2023/06/10 09:22:59;;;;;;;7.88;6.65;;;25.20;99.90;;;;;;5004978;28;20171;-72
2023/06/10 09:25:38;;;;;;;8.30;6.57;;;25.30;99.90;;;;;;5013298;28;20141;-72
2023/06/10 09:28:13;;;;;;;7.55;6.85;;;25.50;99.90;;;;;;5000841;28;20357;-72
2023/06/10 09:30:41;;;;;;;7.28;6.57;;;25.60;99.90;;;;;;5013401;28;20129;-72
2023/06/10 09:33:15;;;;;;;7.63;6.72;;;25.70;99.90;;;;;;5010055;28;20117;-72
2023/06/10 09:35:47;;;;;;;7.47;6.78;;;25.90;99.90;;;;;;4978879;28;20589;-72
2023/06/10 09:38:21;;;;;;;11.77;10.52;;;26.00;99.90;;;;;;5012818;28;20069;-72
2023/06/10 09:40:53;;;;;;;7.38;6.68;;;26.30;99.90;;;;;;5004662;28;20073;-72
2023/06/10 09:43:21;;;;;;;7.55;6.68;;;26.40;99.90;;;;;;5001948;28;20445;-72
2023/06/10 09:45:52;;;;;;;7.88;7.18;;;26.70;99.90;;;;;;5009987;28;20476;-70
2023/06/10 09:48:20;;;;;;;8.07;7.38;;;26.90;99.90;;;;;;4992374;28;20042;-71
2023/06/10 09:50:49;;;;;;;7.60;6.90;;;27.00;99.90;;;;;;4987772;28;20096;-70
2023/06/10 09:53:17;;;;;;;8.02;7.22;;;27.40;99.90;;;;;;5002723;28;20038;-71
2023/06/10 09:55:46;;;;;;;7.60;6.90;;;27.70;99.90;;;;;;4978220;28;20738;-71
2023/06/10 09:58:14;;;;;;;7.38;6.68;;;27.60;99.90;;;;;;5003696;28;20409;-71
2023/06/10 10:00:41;;;;;;;8.23;7.53;;;27.70;99.90;;;;;;5000333;28;20034;-71
2023/06/10 10:03:09;;;;;;;7.78;6.88;;;27.90;99.90;;;;;;5013262;28;20429;-71
2023/06/10 10:05:38;;;;;;;8.07;7.38;;;28.10;99.90;;;;;;4997353;28;20050;-70
2023/06/10 10:08:05;;;;;;;7.82;7.13;;;28.20;99.90;;;;;;5019544;28;20471;-71
2023/06/10 10:10:34;;;;;;;7.35;6.65;;;27.80;99.90;;;;;;5010567;28;20210;-71
2023/06/10 10:13:02;;;;;;;7.72;6.47;;;28.10;99.90;;;;;;4979540;28;20065;-71
2023/06/10 10:15:34;;;;;;;8.00;7.20;;;28.10;99.90;;;;;;5012288;28;20076;-71
2023/06/10 10:18:09;;;;;;;7.70;7.03;;;28.30;99.90;;;;;;4996033;28;20508;-72
2023/06/10 10:20:48;;;;;;;7.97;7.18;;;28.60;99.90;;;;;;5005296;28;20456;-71
2023/06/10 10:23:27;;;;;;;8.35;7.65;;;28.70;99.90;;;;;;5023171;28;20034;-71
2023/06/10 10:25:55;;;;;;;7.80;7.10;;;28.90;99.90;;;;;;4979831;28;20136;-71
2023/06/10 10:28:26;;;;;;;8.20;7.47;;;29.20;99.90;;;;;;4997911;28;20057;-71
2023/06/10 10:31:03;;;;;;;7.68;6.97;;;29.40;99.90;;;;;;4977752;28;20046;-71
2023/06/10 10:33:40;;;;;;;7.40;6.80;;;29.50;99.90;;;;;;4993428;28;20127;-71
2023/06/10 10:36:09;;;;;;;7.03;6.32;;;29.50;99.90;;;;;;5006183;28;20129;-71
2023/06/10 10:38:36;;;;;;;6.75;6.15;;;29.50;99.90;;;;;;4985342;28;20104;-72
2023/06/10 10:41:05;;;;;;;7.35;6.65;;;29.70;99.90;;;;;;4978128;28;20096;-71
2023/06/10 10:43:32;;;;;;;6.95;6.25;;;30.20;99.30;;;;;;5011624;28;20420;-72
2023/06/10 10:46:01;;;;;;;7.50;6.80;;;30.80;98.10;;;;;;4995856;28;20046;-72
2023/06/10 10:48:37;;;;;;;7.75;6.25;;;31.20;97.70;;;;;;4994407;28;20049;-72
2023/06/10 10:51:05;;;;;;;8.13;7.38;;;31.50;96.50;;;;;;4991804;28;20108;-72
2023/06/10 10:53:33;;;;;;;8.82;6.40;;;31.70;95.70;;;;;;4997568;28;20357;-72
2023/06/10 10:56:20;;;;;;;8.30;7.47;;;31.60;95.30;;;;;;4986125;28;20060;-72
2023/06/10 10:59:04;;;;;;;9.65;7.30;;;32.20;94.90;;;;;;4976208;28;20137;-71
2023/06/10 11:01:44;;;;;;;7.65;6.95;;;31.90;93.80;;;;;;4998854;28;20540;-73
2023/06/10 11:04:13;;;;;;;7.97;7.18;;;31.60;93.80;;;;;;5003958;28;20042;-70
2023/06/10 11:06:52;;;;;;;7.18;6.57;;;31.40;93.80;;;;;;4993649;28;20053;-72
2023/06/10 11:09:31;;;;;;;7.45;6.75;;;31.10;94.00;;;;;;5016429;28;20045;-73
2023/06/10 11:11:59;;;;;;;7.60;6.90;;;31.00;94.60;;;;;;4993404;28;20296;-70
2023/06/10 11:14:29;;;;;;;7.93;7.22;;;31.30;94.10;;;;;;5010320;28;20041;-71
2023/06/10 11:16:58;;;;;;;7.65;6.95;;;31.70;93.70;;;;;;5011368;28;20034;-71
2023/06/10 11:19:36;;;;;;;7.40;6.80;;;32.00;93.30;;;;;;5012522;28;20044;-71
2023/06/10 11:22:07;;;;;;;8.90;7.97;;;32.30;92.90;;;;;;4994876;28;20042;-72
2023/06/10 11:24:35;;;;;;;9.65;7.97;;;32.00;92.20;;;;;;4976840;28;20148;-71
2023/06/10 11:27:19;;;;;;;8.48;7.53;;;31.80;92.60;;;;;;5009423;28;20057;-71
2023/06/10 11:30:03;;;;;;;8.18;7.40;;;31.60;92.70;;;;;;5018748;28;20538;-70
2023/06/10 11:32:32;;;;;;;8.02;7.22;;;31.30;92.90;;;;;;4998306;28;20575;-71
2023/06/10 11:35:04;;;;;;;7.72;7.03;;;32.00;93.00;;;;;;4997129;28;20064;-70
2023/06/10 11:37:31;;;;;;;7.50;6.80;;;32.50;92.20;;;;;;5013769;28;20058;-70
2023/06/10 11:39:59;;;;;;;6.82;6.22;;;33.10;91.70;;;;;;5014111;28;20040;-70
2023/06/10 11:42:26;;;;;;;7.85;7.20;;;33.50;91.00;;;;;;5014263;28;20064;-71
2023/06/10 11:44:54;;;;;;;6.50;5.90;;;33.80;89.20;;;;;;4995405;28;20046;-71
2023/06/10 11:47:22;;;;;;;7.20;6.60;;;34.30;86.00;;;;;;5007105;28;20042;-71
2023/06/10 11:49:57;;;;;;;7.20;6.60;;;34.60;83.30;;;;;;5012043;28;20041;-71
2023/06/10 11:52:33;;;;;;;7.78;7.07;;;34.90;81.70;;;;;;5005761;28;20141;-71
2023/06/10 11:55:00;;;;;;;7.10;6.50;;;35.00;80.90;;;;;;5013345;28;20045;-71
2023/06/10 11:57:28;;;;;;;7.15;6.63;;;35.10;79.80;;;;;;5022483;28;20578;-71
2023/06/10 11:59:56;;;;;;;7.25;6.55;;;35.60;78.30;;;;;;4992745;28;20510;-71
2023/06/10 12:02:23;;;;;;;7.13;6.53;;;35.40;77.50;;;;;;5000508;28;20069;-71
2023/06/10 12:04:51;;;;;;;6.97;6.38;;;34.60;77.60;;;;;;5004798;28;20462;-71
2023/06/10 12:07:21;;;;;;;7.80;7.00;;;34.10;78.50;;;;;;5017875;28;20042;-71
2023/06/10 12:09:59;;;;;;;7.32;6.70;;;34.00;78.70;;;;;;5004718;28;20045;-71
2023/06/10 12:12:38;;;;;;;6.80;6.20;;;33.50;79.30;;;;;;5021563;28;20103;-71
2023/06/10 12:15:07;;;;;;;7.03;6.40;;;33.60;79.90;;;;;;5007638;28;20044;-72
2023/06/10 12:17:38;;;;;;;6.93;5.60;;;33.50;79.40;;;;;;5000603;28;20438;-71
2023/06/10 12:20:24;;;;;;;6.70;6.10;;;34.30;76.80;;;;;;4998792;28;20092;-71
2023/06/10 12:22:51;;;;;;;6.38;5.88;;;34.90;75.50;;;;;;5011045;28;20049;-72
2023/06/10 12:25:26;;;;;;;6.97;6.35;;;35.70;74.20;;;;;;5007343;28;20317;-72
2023/06/10 12:27:55;;;;;;;6.97;6.28;;;36.10;72.50;;;;;;5010292;28;20073;-72
2023/06/10 12:30:26;;;;;;;7.30;6.70;;;36.70;71.90;;;;;;4997289;28;20257;-72
2023/06/10 12:32:55;;;;;;;7.10;6.50;;;36.40;70.90;;;;;;5012386;28;20398;-71
2023/06/10 12:35:24;;;;;;;7.18;6.57;;;36.70;71.30;;;;;;5001596;28;20057;-71
2023/06/10 12:38:06;;;;;;;7.25;6.65;;;37.20;70.00;;;;;;5011445;28;20033;-71
2023/06/10 12:40:40;;;;;;;7.13;6.53;;;37.30;68.70;;;;;;5003562;28;20151;-71
2023/06/10 12:43:08;;;;;;;6.70;6.20;;;37.20;67.60;;;;;;4991145;28;20091;-71
2023/06/10 12:45:42;;;;;;;7.15;6.43;;;37.60;67.10;;;;;;5002428;28;20050;-71
2023/06/10 12:48:12;;;;;;;6.50;5.95;;;37.80;66.80;;;;;;5008948;28;20080;-71
2023/06/10 12:50:41;;;;;;;6.57;6.07;;;37.90;67.10;;;;;;5003221;28;20042;-70